KFLO/FLO METAR and TAF weather

Enter ICAO airport designator
Station Type Date Time Source
KFLO METAR 2019/10/14 05:53 UTC NOAA

KFLO 140553Z AUTO 19005KT 5SM -RA BR OVC100 21/20 A3002 RMK AO2 RAE12B31 SLP164 P0002 60036 T02060200 10250 20206 58003


Station Type Date Time Source
KFLO Decoded METAR 2019/10/14 05:53 UTC NOAA

FLORENCE REGIONAL AIRPORT, SC, United States (KFLO) 34-11N 079-44W 44M
Oct 14, 2019 - 01:53 AM EDT / 2019.10.14 0553 UTC
Wind: from the S (190 degrees) at 6 MPH (5 KT):0
Visibility: 5 mile(s):0
Sky conditions: overcast
Weather: light rain; mist
Precipitation last hour: 0.02 inches
Temperature: 69.1 F (20.6 C)
Dew Point: 68.0 F (20.0 C)
Relative Humidity: 96%
Pressure (altimeter): 30.02 in. Hg (1016 hPa)
Pressure tendency: 0.01 inches (0.3 hPa) lower than three hours ago
ob: KFLO 140553Z AUTO 19005KT 5SM -RA BR OVC100 21/20 A3002 RMK AO2 RAE12B31 SLP164 P0002 60036 T02060200 10250 20206 58003
cycle: 6

Station Type Date Time Source
KFLO TAF 2019/10/14 06:36 UTC NOAA

TAF KFLO 140535Z 1406/1506 21004KT 4SM SHRA OVC045
FM141300 28003KT 3SM BR BKN035
FM141500 29004KT P6SM BKN100 BKN250
FM141800 30004KT P6SM FEW250
FM150200 00000KT 6SM BR SKC

Example: see airport list